Time;durP1;ratioP1;P1;durP2;ratioP2;P2;SDS_P1;SDS_P2;PMS_P1;PMS_P2;Temp;Humidity;BMP_temperature;BMP_pressure;BME280_temperature;BME280_humidity;BME280_pressure;Samples;Min_cycle;Max_cycle;Signal;HPM_P1;HPM_P2
2021/12/30 00:01:16;;;;;;;17.33;12.60;;;9.80;99.90;;;;;;5126865;27;20235;-62
2021/12/30 00:03:44;;;;;;;18.00;13.48;;;9.90;99.90;;;;;;5136160;27;20226;-62
2021/12/30 00:06:12;;;;;;;18.10;13.73;;;9.80;99.90;;;;;;5131238;27;20223;-63
2021/12/30 00:08:39;;;;;;;17.50;13.88;;;9.80;99.90;;;;;;5133592;27;20305;-63
2021/12/30 00:11:08;;;;;;;20.13;14.25;;;9.80;99.90;;;;;;5131070;27;20218;-63
2021/12/30 00:13:35;;;;;;;18.60;14.38;;;9.90;99.90;;;;;;5136120;27;20221;-63
2021/12/30 00:16:03;;;;;;;17.00;13.02;;;9.80;99.90;;;;;;5135276;27;20219;-63
2021/12/30 00:18:30;;;;;;;19.20;13.48;;;9.80;99.90;;;;;;5136067;27;20237;-63
2021/12/30 00:20:56;;;;;;;18.23;13.35;;;9.80;99.90;;;;;;5135970;27;20309;-63
2021/12/30 00:23:23;;;;;;;17.35;13.07;;;9.80;99.90;;;;;;5136019;27;20537;-63
2021/12/30 00:25:50;;;;;;;18.30;14.95;;;9.80;99.90;;;;;;5135922;27;20558;-64
2021/12/30 00:28:21;;;;;;;19.13;14.52;;;9.80;99.90;;;;;;5135494;27;20588;-63
2021/12/30 00:30:49;;;;;;;15.57;13.70;;;9.80;99.90;;;;;;5128267;27;20241;-64
2021/12/30 00:33:17;;;;;;;15.68;12.98;;;9.80;99.90;;;;;;5133653;27;20365;-63
2021/12/30 00:35:44;;;;;;;14.90;12.57;;;9.80;99.90;;;;;;5136177;27;20223;-64
2021/12/30 00:38:11;;;;;;;22.25;17.40;;;9.80;99.90;;;;;;5142298;27;20222;-63
2021/12/30 00:40:39;;;;;;;20.17;17.20;;;9.80;99.90;;;;;;5142427;27;20233;-64
2021/12/30 00:43:06;;;;;;;19.25;16.20;;;9.80;99.90;;;;;;5128753;27;20218;-64
2021/12/30 00:45:37;;;;;;;20.77;17.95;;;9.80;99.90;;;;;;5135824;27;20223;-64
2021/12/30 00:48:05;;;;;;;21.45;15.52;;;9.80;99.90;;;;;;5132467;27;20571;-61
2021/12/30 00:50:32;;;;;;;16.02;13.95;;;9.80;99.90;;;;;;5132414;27;20225;-64
2021/12/30 00:53:00;;;;;;;17.38;13.45;;;9.80;99.90;;;;;;5129351;27;20671;-63
2021/12/30 00:55:27;;;;;;;17.67;14.90;;;9.70;99.90;;;;;;5127833;27;20223;-63
2021/12/30 00:57:54;;;;;;;15.20;13.60;;;9.70;99.90;;;;;;5135321;27;20228;-63
2021/12/30 01:00:22;;;;;;;18.85;14.50;;;9.70;99.90;;;;;;5135124;27;20222;-63
2021/12/30 01:02:50;;;;;;;19.15;14.38;;;9.70;99.90;;;;;;5135510;27;20244;-62
2021/12/30 01:05:17;;;;;;;16.13;12.90;;;9.70;99.90;;;;;;5134876;27;20228;-63
2021/12/30 01:07:45;;;;;;;18.60;14.73;;;9.70;99.90;;;;;;5134692;27;20227;-63
2021/12/30 01:10:14;;;;;;;17.00;13.63;;;9.70;99.90;;;;;;5128078;27;20253;-63
2021/12/30 01:12:41;;;;;;;14.88;12.65;;;9.70;99.90;;;;;;5135467;27;20305;-64
2021/12/30 01:15:11;;;;;;;15.18;12.32;;;9.60;99.90;;;;;;5134576;27;20241;-63
2021/12/30 01:17:47;;;;;;;14.80;12.10;;;9.70;99.90;;;;;;5121600;27;20218;-63
2021/12/30 01:20:18;;;;;;;15.05;13.45;;;9.70;99.90;;;;;;5134730;27;20760;-63
2021/12/30 01:22:47;;;;;;;16.92;13.40;;;9.70;99.90;;;;;;5134708;27;20233;-63
2021/12/30 01:25:14;;;;;;;13.75;12.07;;;9.70;99.90;;;;;;5134500;27;20234;-63
2021/12/30 01:27:41;;;;;;;15.30;12.57;;;9.70;99.90;;;;;;5125978;27;20228;-63
2021/12/30 01:30:11;;;;;;;15.45;12.20;;;9.80;99.90;;;;;;5134312;27;20310;-63
2021/12/30 01:32:38;;;;;;;14.27;12.05;;;9.70;99.90;;;;;;5134958;27;20685;-62
2021/12/30 01:35:08;;;;;;;13.30;11.90;;;9.80;99.90;;;;;;5133016;27;20219;-63
2021/12/30 01:37:36;;;;;;;14.45;12.70;;;9.80;99.90;;;;;;5142679;27;20240;-62
2021/12/30 01:40:04;;;;;;;13.77;11.35;;;9.80;99.90;;;;;;5135670;27;20272;-62
2021/12/30 01:42:32;;;;;;;13.50;11.93;;;9.80;99.90;;;;;;5134282;27;20215;-62
2021/12/30 01:44:59;;;;;;;15.32;12.15;;;9.80;99.90;;;;;;5134683;27;20661;-63
2021/12/30 01:47:26;;;;;;;12.45;11.15;;;9.80;99.90;;;;;;5131268;27;20231;-63
2021/12/30 01:49:53;;;;;;;13.45;12.05;;;9.80;99.90;;;;;;5132145;27;20267;-63
2021/12/30 01:52:20;;;;;;;14.88;11.50;;;9.80;99.90;;;;;;5127126;27;20215;-63
2021/12/30 01:54:49;;;;;;;12.02;10.43;;;9.90;99.90;;;;;;5134358;27;20302;-63
2021/12/30 01:57:16;;;;;;;12.07;10.82;;;9.90;99.90;;;;;;5134169;27;20252;-64
2021/12/30 01:59:43;;;;;;;13.25;11.27;;;9.90;99.90;;;;;;5134626;27;20219;-64
2021/12/30 02:02:10;;;;;;;15.05;11.98;;;9.90;99.90;;;;;;5124714;27;20219;-64
2021/12/30 02:04:37;;;;;;;12.10;9.82;;;9.90;99.90;;;;;;5133454;27;20223;-64
2021/12/30 02:07:04;;;;;;;14.80;12.07;;;9.90;99.90;;;;;;5131360;27;20568;-64
2021/12/30 02:09:31;;;;;;;12.55;10.50;;;9.90;99.90;;;;;;5132206;27;20230;-64
2021/12/30 02:12:01;;;;;;;13.75;10.80;;;9.90;99.90;;;;;;5132743;27;20238;-63
2021/12/30 02:14:33;;;;;;;13.00;11.70;;;9.90;99.90;;;;;;5132212;27;20684;-63
2021/12/30 02:16:59;;;;;;;13.75;11.20;;;9.80;99.90;;;;;;5133146;27;20226;-63
2021/12/30 02:19:26;;;;;;;14.80;12.50;;;9.80;99.90;;;;;;5131344;27;20226;-63
2021/12/30 02:21:55;;;;;;;13.73;11.25;;;9.80;99.90;;;;;;5131598;27;20229;-63
2021/12/30 02:24:21;;;;;;;24.85;19.63;;;9.80;99.90;;;;;;5131485;27;20219;-63
2021/12/30 02:26:48;;;;;;;14.20;12.70;;;9.80;99.90;;;;;;5132348;27;20610;-63
2021/12/30 02:29:15;;;;;;;15.05;13.38;;;9.80;99.90;;;;;;5131740;27;20246;-63
2021/12/30 02:31:42;;;;;;;17.48;14.85;;;9.80;99.90;;;;;;5132621;27;20219;-62
2021/12/30 02:34:09;;;;;;;14.05;12.68;;;9.80;99.90;;;;;;5134208;27;20225;-64
2021/12/30 02:36:37;;;;;;;14.13;12.75;;;9.80;99.90;;;;;;5134080;27;20893;-63
2021/12/30 02:39:08;;;;;;;15.38;12.43;;;9.70;99.90;;;;;;5140871;27;20570;-63
2021/12/30 02:41:37;;;;;;;16.65;14.15;;;9.70;99.90;;;;;;5118873;27;20232;-63
2021/12/30 02:44:06;;;;;;;25.85;21.80;;;9.80;99.90;;;;;;5133834;27;20223;-63
2021/12/30 02:46:35;;;;;;;23.75;18.80;;;9.70;99.90;;;;;;5124524;27;20222;-63
2021/12/30 02:49:04;;;;;;;29.05;23.60;;;9.70;99.90;;;;;;5133693;27;20679;-63
2021/12/30 02:51:30;;;;;;;16.38;13.80;;;9.70;99.90;;;;;;5133259;27;20310;-62
2021/12/30 02:53:58;;;;;;;16.05;12.70;;;9.70;99.90;;;;;;5133562;27;20255;-64
2021/12/30 02:56:28;;;;;;;59.83;34.67;;;9.70;99.90;;;;;;5133520;27;20245;-62
2021/12/30 02:58:55;;;;;;;15.68;13.98;;;9.70;99.90;;;;;;5133607;27;20241;-64
2021/12/30 03:01:23;;;;;;;15.02;13.40;;;9.70;99.90;;;;;;5133024;27;20222;-63
2021/12/30 03:03:51;;;;;;;15.70;13.30;;;9.60;99.90;;;;;;5133478;27;20221;-64
2021/12/30 03:06:18;;;;;;;13.43;12.00;;;9.70;99.90;;;;;;5133082;27;20699;-64
2021/12/30 03:08:47;;;;;;;14.95;12.48;;;9.70;99.90;;;;;;5133350;27;20222;-64
2021/12/30 03:11:15;;;;;;;19.63;15.15;;;9.70;99.90;;;;;;5133186;27;20219;-64
2021/12/30 03:13:44;;;;;;;14.00;12.40;;;9.80;99.90;;;;;;5133342;27;20225;-64
2021/12/30 03:16:14;;;;;;;14.07;12.45;;;9.80;99.90;;;;;;5131123;27;20269;-64
2021/12/30 03:18:43;;;;;;;13.38;12.07;;;9.80;99.90;;;;;;5134335;27;20218;-64
2021/12/30 03:21:12;;;;;;;16.85;15.07;;;9.80;99.90;;;;;;5137712;27;20241;-63
2021/12/30 03:23:39;;;;;;;13.73;12.25;;;9.90;99.90;;;;;;5137288;27;20660;-63
2021/12/30 03:26:07;;;;;;;14.27;12.50;;;9.90;99.90;;;;;;5137584;27;20215;-64
2021/12/30 03:28:35;;;;;;;14.60;11.70;;;9.90;99.90;;;;;;5137341;27;20215;-64
2021/12/30 03:31:04;;;;;;;12.82;11.48;;;10.00;99.90;;;;;;5137332;27;20233;-64
2021/12/30 03:33:32;;;;;;;13.52;12.05;;;10.00;99.90;;;;;;5137163;27;20231;-64
2021/12/30 03:36:01;;;;;;;25.30;19.77;;;9.90;99.90;;;;;;5123807;27;20232;-64
2021/12/30 03:38:28;;;;;;;17.88;13.55;;;9.90;99.90;;;;;;5135278;27;20222;-63
2021/12/30 03:40:56;;;;;;;14.80;12.90;;;9.90;99.90;;;;;;5133190;27;20227;-63
2021/12/30 03:43:23;;;;;;;11.77;10.57;;;10.00;99.90;;;;;;5136900;27;20815;-63
2021/12/30 03:45:50;;;;;;;16.30;14.57;;;10.00;99.90;;;;;;5137208;27;20752;-63
2021/12/30 03:48:18;;;;;;;12.60;11.35;;;10.10;99.90;;;;;;5136019;27;20222;-63
2021/12/30 03:50:47;;;;;;;17.20;13.50;;;10.10;99.90;;;;;;5134896;27;20935;-62
2021/12/30 03:53:16;;;;;;;17.65;15.18;;;10.20;99.90;;;;;;5136217;27;20219;-62
2021/12/30 03:55:43;;;;;;;13.68;12.20;;;10.20;99.90;;;;;;5135853;27;20223;-63
2021/12/30 03:58:10;;;;;;;18.25;15.68;;;10.20;99.90;;;;;;5136700;27;20221;-63
2021/12/30 04:00:39;;;;;;;12.23;10.98;;;10.30;99.90;;;;;;5136449;27;20698;-63
2021/12/30 04:03:06;;;;;;;12.25;10.55;;;10.30;99.90;;;;;;5137148;27;20223;-63
2021/12/30 04:05:34;;;;;;;13.65;11.20;;;10.40;99.90;;;;;;5136560;27;20264;-63
2021/12/30 04:08:01;;;;;;;12.02;10.52;;;10.40;99.90;;;;;;5136797;27;20229;-62
2021/12/30 04:10:28;;;;;;;17.85;15.10;;;10.40;99.90;;;;;;5136421;27;20233;-63
2021/12/30 04:12:56;;;;;;;10.85;9.68;;;10.50;99.90;;;;;;5136945;27;20218;-64
2021/12/30 04:15:23;;;;;;;11.00;9.88;;;10.50;99.90;;;;;;5136435;27;20567;-63
2021/12/30 04:17:50;;;;;;;11.05;9.65;;;10.50;99.90;;;;;;5136765;27;20228;-63
2021/12/30 04:20:17;;;;;;;9.02;8.15;;;10.60;99.90;;;;;;5136481;27;20222;-62
2021/12/30 04:22:46;;;;;;;17.27;15.40;;;10.60;99.90;;;;;;5136246;27;20229;-63
2021/12/30 04:25:15;;;;;;;12.52;11.23;;;10.60;99.90;;;;;;5136637;27;20220;-63
2021/12/30 04:27:43;;;;;;;16.98;12.13;;;10.60;99.90;;;;;;5136333;27;20233;-63
2021/12/30 04:30:12;;;;;;;15.95;10.48;;;10.60;99.90;;;;;;5135781;27;20268;-63
2021/12/30 04:32:39;;;;;;;17.73;12.60;;;10.70;99.90;;;;;;5136171;27;20658;-63
2021/12/30 04:35:08;;;;;;;18.73;11.82;;;10.70;99.90;;;;;;5136389;27;20578;-63
2021/12/30 04:37:35;;;;;;;17.73;13.40;;;10.60;99.90;;;;;;5135891;27;20223;-62
2021/12/30 04:40:05;;;;;;;14.25;12.52;;;10.70;99.90;;;;;;5136477;27;20693;-62
2021/12/30 04:42:32;;;;;;;16.02;12.20;;;10.70;99.90;;;;;;5135901;27;20229;-62
2021/12/30 04:44:58;;;;;;;16.55;12.55;;;10.70;99.90;;;;;;5136244;27;20220;-63
2021/12/30 04:47:25;;;;;;;18.05;12.65;;;10.70;99.90;;;;;;5135951;27;20227;-63
2021/12/30 04:49:55;;;;;;;18.20;12.52;;;10.70;99.90;;;;;;5135886;27;20221;-62
2021/12/30 04:52:22;;;;;;;18.60;12.48;;;10.70;99.90;;;;;;5135895;27;20253;-62
2021/12/30 04:54:49;;;;;;;17.25;12.40;;;10.70;99.90;;;;;;5135747;27;20218;-62
2021/12/30 04:57:18;;;;;;;17.77;13.90;;;10.70;99.90;;;;;;5136131;27;20214;-62
2021/12/30 04:59:45;;;;;;;19.38;14.25;;;10.70;99.90;;;;;;5135383;27;20234;-63
2021/12/30 05:02:13;;;;;;;18.00;13.10;;;10.70;99.90;;;;;;5135860;27;20222;-63
2021/12/30 05:04:39;;;;;;;24.48;15.32;;;10.80;99.90;;;;;;5135450;27;20667;-63
2021/12/30 05:07:06;;;;;;;18.70;13.30;;;10.80;99.90;;;;;;5135720;27;20237;-63
2021/12/30 05:09:33;;;;;;;21.33;15.13;;;10.70;99.90;;;;;;5135343;27;20311;-63
2021/12/30 05:12:00;;;;;;;21.88;14.60;;;10.80;99.90;;;;;;5135817;27;20220;-63
2021/12/30 05:14:28;;;;;;;19.98;14.15;;;10.80;99.90;;;;;;5135349;27;20223;-63
2021/12/30 05:17:02;;;;;;;20.60;14.75;;;10.80;99.90;;;;;;5135805;27;20710;-63
2021/12/30 05:19:29;;;;;;;17.67;13.65;;;10.80;99.90;;;;;;5135189;27;20702;-63
2021/12/30 05:21:56;;;;;;;27.13;15.55;;;10.90;99.90;;;;;;5135479;27;20227;-63
2021/12/30 05:24:23;;;;;;;19.73;12.88;;;10.90;99.90;;;;;;5135713;27;20540;-64
2021/12/30 05:26:50;;;;;;;20.15;13.55;;;10.90;99.90;;;;;;5134923;27;20649;-64
2021/12/30 05:29:16;;;;;;;22.55;15.15;;;10.90;99.90;;;;;;5135309;27;20233;-64
2021/12/30 05:31:45;;;;;;;26.00;16.02;;;10.90;99.90;;;;;;5135121;27;20227;-64
2021/12/30 05:34:11;;;;;;;19.63;15.05;;;11.00;99.90;;;;;;5135358;27;20227;-64
2021/12/30 05:36:38;;;;;;;27.17;16.55;;;11.00;99.90;;;;;;5134936;27;20270;-62
2021/12/30 05:39:05;;;;;;;21.15;17.15;;;11.00;99.90;;;;;;5135009;27;20224;-62
2021/12/30 05:41:32;;;;;;;22.20;14.98;;;11.00;99.90;;;;;;5133754;27;20230;-63
2021/12/30 05:44:00;;;;;;;23.02;16.50;;;11.10;99.90;;;;;;5135256;27;20219;-64
2021/12/30 05:46:28;;;;;;;17.92;14.05;;;11.10;99.90;;;;;;5135192;27;20223;-63
2021/12/30 05:48:56;;;;;;;17.63;14.05;;;11.10;99.90;;;;;;5134623;27;20219;-63
2021/12/30 05:51:23;;;;;;;24.42;15.07;;;11.10;99.90;;;;;;5135031;27;20230;-63
2021/12/30 05:53:50;;;;;;;21.05;16.63;;;11.10;99.90;;;;;;5134353;27;20227;-63
2021/12/30 05:56:17;;;;;;;19.17;15.93;;;11.10;99.90;;;;;;5134726;27;20224;-63
2021/12/30 05:58:44;;;;;;;20.90;15.25;;;11.20;99.90;;;;;;5134521;27;20223;-63
2021/12/30 06:01:10;;;;;;;20.02;15.43;;;11.20;99.90;;;;;;5134723;27;20231;-63
2021/12/30 06:03:37;;;;;;;23.10;17.45;;;11.20;99.90;;;;;;5134305;27;20694;-63
2021/12/30 06:06:06;;;;;;;23.63;14.85;;;11.20;99.90;;;;;;5134685;27;20215;-63
2021/12/30 06:08:33;;;;;;;18.98;14.55;;;11.20;99.90;;;;;;5134102;27;20249;-63
2021/12/30 06:11:00;;;;;;;17.05;13.55;;;11.20;99.90;;;;;;5134506;27;20230;-63
2021/12/30 06:13:26;;;;;;;18.95;15.43;;;11.30;99.90;;;;;;5134634;27;20228;-63
2021/12/30 06:15:53;;;;;;;21.73;15.20;;;11.30;99.90;;;;;;5134001;27;20754;-63
2021/12/30 06:18:20;;;;;;;22.10;14.73;;;11.30;99.90;;;;;;5134538;27;20533;-63
2021/12/30 06:20:47;;;;;;;18.27;15.35;;;11.30;99.90;;;;;;5133966;27;20228;-63
2021/12/30 06:23:15;;;;;;;21.02;15.38;;;11.30;99.90;;;;;;5134242;27;20318;-63
2021/12/30 06:25:42;;;;;;;20.20;15.60;;;11.30;99.90;;;;;;5133998;27;20298;-63
2021/12/30 06:28:09;;;;;;;22.85;14.93;;;11.30;99.90;;;;;;5134209;27;20227;-63
2021/12/30 06:30:36;;;;;;;20.35;14.20;;;11.30;99.90;;;;;;5133894;27;20628;-63
2021/12/30 06:33:03;;;;;;;21.60;16.30;;;11.30;99.90;;;;;;5134251;27;20219;-64
2021/12/30 06:35:32;;;;;;;18.65;14.27;;;11.30;99.90;;;;;;5134101;27;20221;-64
2021/12/30 06:37:59;;;;;;;23.50;14.10;;;11.30;99.90;;;;;;5133796;27;20645;-63
2021/12/30 06:40:28;;;;;;;20.80;16.05;;;11.30;99.90;;;;;;5134091;27;20257;-63
2021/12/30 06:42:55;;;;;;;19.80;16.77;;;11.30;99.90;;;;;;5133696;27;20232;-64
2021/12/30 06:45:22;;;;;;;18.17;13.85;;;11.30;99.90;;;;;;5133964;27;20229;-64
2021/12/30 06:47:49;;;;;;;23.67;13.73;;;11.30;99.90;;;;;;5133735;27;20244;-63
2021/12/30 06:50:17;;;;;;;19.50;13.82;;;11.30;99.90;;;;;;5133751;27;20690;-63
2021/12/30 06:52:46;;;;;;;18.83;13.73;;;11.30;99.90;;;;;;5133122;27;20230;-64
2021/12/30 06:55:13;;;;;;;19.15;13.70;;;11.30;99.90;;;;;;5134078;27;20224;-63
2021/12/30 06:57:42;;;;;;;21.65;15.70;;;11.30;99.90;;;;;;5133403;27;20224;-64
2021/12/30 07:00:11;;;;;;;22.38;13.10;;;11.30;99.90;;;;;;5133682;27;20223;-63
2021/12/30 07:02:41;;;;;;;20.85;13.73;;;11.30;99.90;;;;;;5133404;27;20220;-63
2021/12/30 07:05:08;;;;;;;21.73;13.43;;;11.30;99.90;;;;;;5133884;27;20562;-63
2021/12/30 07:07:35;;;;;;;21.65;13.07;;;11.30;99.90;;;;;;5133300;27;20232;-63
2021/12/30 07:10:02;;;;;;;19.05;14.13;;;11.30;99.90;;;;;;5133548;27;21011;-63
2021/12/30 07:12:29;;;;;;;17.88;14.55;;;11.30;99.90;;;;;;5133792;27;20226;-63
2021/12/30 07:14:57;;;;;;;21.90;13.93;;;11.30;99.90;;;;;;5133232;27;20230;-63
2021/12/30 07:17:26;;;;;;;19.65;12.98;;;11.30;99.90;;;;;;5133635;27;20226;-64
2021/12/30 07:19:53;;;;;;;18.05;13.23;;;11.30;99.90;;;;;;5133037;27;20844;-64
2021/12/30 07:22:20;;;;;;;14.40;10.85;;;11.20;99.90;;;;;;5133487;27;20230;-64
2021/12/30 07:24:47;;;;;;;18.48;12.90;;;11.20;99.90;;;;;;5133326;27;20226;-62
2021/12/30 07:27:13;;;;;;;17.88;12.00;;;11.20;99.90;;;;;;5133557;27;20225;-62
2021/12/30 07:29:40;;;;;;;19.48;13.55;;;11.20;99.90;;;;;;5133075;27;20224;-64
2021/12/30 07:32:08;;;;;;;19.17;13.40;;;11.30;99.90;;;;;;5133556;27;20683;-63
2021/12/30 07:34:35;;;;;;;14.35;12.13;;;11.20;99.90;;;;;;5133464;27;20231;-64
2021/12/30 07:37:02;;;;;;;21.35;11.93;;;11.20;99.90;;;;;;5133020;27;20224;-64
2021/12/30 07:39:29;;;;;;;17.15;12.65;;;11.30;99.90;;;;;;5133328;27;20219;-64
2021/12/30 07:41:56;;;;;;;18.15;12.45;;;11.20;99.90;;;;;;5133113;27;20572;-64
2021/12/30 07:44:23;;;;;;;13.77;11.57;;;11.30;99.90;;;;;;5133429;27;20223;-64
2021/12/30 07:46:49;;;;;;;13.93;11.63;;;11.30;99.90;;;;;;5133059;27;20224;-63
2021/12/30 07:49:18;;;;;;;21.98;14.50;;;11.30;99.90;;;;;;5133216;27;20220;-63
2021/12/30 07:51:45;;;;;;;15.55;13.60;;;11.30;99.90;;;;;;5132861;27;20569;-64
2021/12/30 07:54:11;;;;;;;15.55;12.45;;;11.30;99.90;;;;;;5133240;27;20677;-63
2021/12/30 07:56:38;;;;;;;16.38;10.93;;;11.30;99.90;;;;;;5133437;27;20220;-63
2021/12/30 07:59:05;;;;;;;13.27;10.88;;;11.30;99.90;;;;;;5133001;27;20219;-63
2021/12/30 08:01:32;;;;;;;14.00;11.85;;;11.30;99.90;;;;;;5133140;27;20231;-63
2021/12/30 08:03:59;;;;;;;14.68;11.73;;;11.40;99.90;;;;;;5132866;27;20224;-63
2021/12/30 08:06:28;;;;;;;19.83;12.93;;;11.30;99.90;;;;;;5137001;27;20692;-63
2021/12/30 08:08:56;;;;;;;13.30;11.60;;;11.40;99.90;;;;;;5136478;27;20224;-63
2021/12/30 08:11:23;;;;;;;20.38;12.27;;;11.40;99.90;;;;;;5136976;27;20567;-63
2021/12/30 08:13:50;;;;;;;18.13;12.43;;;11.40;99.90;;;;;;5136458;27;20679;-63
2021/12/30 08:16:17;;;;;;;18.83;12.35;;;11.40;99.90;;;;;;5136922;27;20230;-63
2021/12/30 08:18:44;;;;;;;19.27;12.30;;;11.40;99.90;;;;;;5136384;27;20223;-63
2021/12/30 08:21:11;;;;;;;22.58;13.40;;;11.40;99.90;;;;;;5136946;27;20537;-63
2021/12/30 08:23:40;;;;;;;15.82;11.13;;;11.50;99.90;;;;;;5136570;27;20323;-63
2021/12/30 08:26:07;;;;;;;23.80;11.32;;;11.50;99.90;;;;;;5136254;27;20219;-64
2021/12/30 08:28:34;;;;;;;22.10;12.27;;;11.50;99.90;;;;;;5136580;27;20224;-63
2021/12/30 08:31:01;;;;;;;19.48;11.23;;;11.50;99.90;;;;;;5135898;27;20683;-63
2021/12/30 08:33:28;;;;;;;19.73;11.50;;;11.40;99.90;;;;;;5136743;27;20301;-63
2021/12/30 08:35:54;;;;;;;10.13;9.10;;;11.50;99.90;;;;;;5136195;27;20220;-63
2021/12/30 08:38:23;;;;;;;19.38;11.88;;;11.50;99.90;;;;;;5136549;27;20230;-63
2021/12/30 08:40:51;;;;;;;23.52;13.55;;;11.50;99.90;;;;;;5135877;27;20229;-63
2021/12/30 08:46:02;;;;;;;17.23;10.80;;;11.60;99.90;;;;;;5135733;27;20225;-63
2021/12/30 08:48:29;;;;;;;14.30;10.77;;;11.60;99.90;;;;;;5136206;27;20234;-63
2021/12/30 08:50:57;;;;;;;15.80;10.13;;;11.60;99.90;;;;;;5135664;27;20231;-63
2021/12/30 08:53:25;;;;;;;16.88;12.52;;;11.60;99.90;;;;;;5135950;27;20232;-63
2021/12/30 08:55:53;;;;;;;18.45;13.98;;;11.70;99.90;;;;;;5135607;27;20224;-63
2021/12/30 08:58:20;;;;;;;20.42;13.32;;;11.70;99.90;;;;;;5136150;27;20216;-63
2021/12/30 09:00:47;;;;;;;20.60;12.38;;;11.70;99.90;;;;;;5135419;27;20223;-63
2021/12/30 09:03:15;;;;;;;18.27;10.75;;;11.70;99.90;;;;;;5135868;27;20220;-63
2021/12/30 09:05:42;;;;;;;24.10;12.20;;;11.70;99.90;;;;;;5135921;27;20733;-63
2021/12/30 09:08:10;;;;;;;18.50;11.82;;;11.70;99.90;;;;;;5135251;27;20261;-63
2021/12/30 09:10:40;;;;;;;16.20;10.43;;;11.70;99.90;;;;;;5135604;27;20220;-63
2021/12/30 09:13:09;;;;;;;14.88;10.15;;;11.70;99.90;;;;;;5135419;27;20240;-62
2021/12/30 09:15:36;;;;;;;15.55;10.57;;;11.80;99.90;;;;;;5135600;27;20220;-63
2021/12/30 09:18:05;;;;;;;27.17;12.55;;;11.80;99.90;;;;;;5135200;27;20708;-63
2021/12/30 09:20:32;;;;;;;17.80;12.02;;;11.80;99.90;;;;;;5135498;27;20272;-62
2021/12/30 09:23:03;;;;;;;12.95;10.57;;;11.80;99.90;;;;;;5135044;27;20226;-63
2021/12/30 09:25:30;;;;;;;21.23;10.73;;;11.90;99.90;;;;;;5135405;27;20237;-63
2021/12/30 09:27:58;;;;;;;18.92;11.05;;;11.90;99.90;;;;;;5135183;27;20597;-62
2021/12/30 09:30:28;;;;;;;19.73;9.88;;;11.90;99.90;;;;;;5135163;27;20234;-63
2021/12/30 09:32:57;;;;;;;19.35;10.68;;;12.00;99.90;;;;;;5134995;27;20232;-62
2021/12/30 09:35:24;;;;;;;14.75;10.13;;;12.00;99.90;;;;;;5135321;27;20230;-63
2021/12/30 09:37:52;;;;;;;14.05;8.70;;;12.00;99.90;;;;;;5134844;27;20239;-63
2021/12/30 09:40:20;;;;;;;13.10;9.15;;;12.00;99.90;;;;;;5135262;27;20233;-63
2021/12/30 09:42:52;;;;;;;11.25;9.00;;;12.10;99.90;;;;;;5135262;27;20226;-63
2021/12/30 09:45:20;;;;;;;17.17;10.40;;;12.10;99.90;;;;;;5134970;27;20221;-62
2021/12/30 09:47:51;;;;;;;15.52;9.90;;;12.10;99.90;;;;;;5135030;27;20677;-62
2021/12/30 09:50:19;;;;;;;15.50;10.35;;;12.10;99.90;;;;;;5134280;27;20224;-63
2021/12/30 09:52:46;;;;;;;13.55;9.75;;;12.20;99.90;;;;;;5134941;27;20586;-63
2021/12/30 09:55:13;;;;;;;13.30;9.93;;;12.20;99.90;;;;;;5134419;27;20225;-62
2021/12/30 09:57:41;;;;;;;13.98;10.05;;;12.20;99.90;;;;;;5134953;27;20708;-62
2021/12/30 10:00:11;;;;;;;12.95;9.63;;;12.20;99.90;;;;;;5134345;27;20227;-63
2021/12/30 10:02:38;;;;;;;13.55;9.18;;;12.20;99.90;;;;;;5134761;27;20224;-63
2021/12/30 10:05:11;;;;;;;15.73;9.80;;;12.20;99.90;;;;;;5134484;27;20224;-63
2021/12/30 10:07:39;;;;;;;16.10;10.45;;;12.20;99.90;;;;;;5134557;27;20228;-63
2021/12/30 10:10:26;;;;;;;12.60;10.02;;;12.20;99.90;;;;;;5134024;27;20224;-63
2021/12/30 10:12:52;;;;;;;24.63;11.75;;;12.20;99.90;;;;;;5134568;27;20306;-63
2021/12/30 10:15:24;;;;;;;17.17;9.18;;;12.30;99.90;;;;;;5134247;27;20306;-62
2021/12/30 10:17:55;;;;;;;16.30;9.73;;;12.30;99.90;;;;;;5134557;27;20249;-62
2021/12/30 10:20:27;;;;;;;12.30;9.05;;;12.30;99.90;;;;;;5133966;27;20272;-62
2021/12/30 10:22:56;;;;;;;16.77;9.75;;;12.30;99.90;;;;;;5134463;27;20234;-63
2021/12/30 10:25:31;;;;;;;17.85;10.82;;;12.30;99.90;;;;;;5134301;27;20642;-63
2021/12/30 10:28:18;;;;;;;21.40;11.82;;;12.30;99.90;;;;;;5133586;27;20226;-62
2021/12/30 10:30:46;;;;;;;12.88;10.00;;;12.30;99.90;;;;;;5134153;27;20223;-63
2021/12/30 10:33:14;;;;;;;14.75;9.90;;;12.30;99.90;;;;;;5133736;27;20302;-64
2021/12/30 10:35:43;;;;;;;14.95;10.95;;;12.30;99.90;;;;;;5134274;27;20220;-63
2021/12/30 10:38:11;;;;;;;16.00;11.20;;;12.30;99.90;;;;;;5133800;27;20310;-63
2021/12/30 10:40:41;;;;;;;14.07;11.68;;;12.30;99.90;;;;;;5134080;27;20270;-63
2021/12/30 10:43:18;;;;;;;14.90;13.27;;;12.30;99.90;;;;;;5133769;27;20220;-63
2021/12/30 10:46:02;;;;;;;22.23;15.80;;;12.30;99.90;;;;;;5134044;27;20678;-63
2021/12/30 10:48:29;;;;;;;21.65;15.13;;;12.30;99.90;;;;;;5133674;27;20219;-64
2021/12/30 10:51:11;;;;;;;24.05;16.02;;;12.30;99.90;;;;;;5133834;27;20239;-63
2021/12/30 10:53:38;;;;;;;23.30;15.38;;;12.30;99.90;;;;;;5133551;27;20465;-63
2021/12/30 10:56:20;;;;;;;15.20;13.02;;;12.30;99.90;;;;;;5133875;27;20230;-64
2021/12/30 10:58:47;;;;;;;18.90;12.10;;;12.20;99.90;;;;;;5133645;27;20220;-63
2021/12/30 11:01:15;;;;;;;14.27;11.65;;;12.30;99.90;;;;;;5133814;27;20228;-63
2021/12/30 11:03:42;;;;;;;15.13;10.38;;;12.30;99.90;;;;;;5133255;27;20251;-62
2021/12/30 11:06:18;;;;;;;15.93;12.40;;;12.30;99.90;;;;;;5133655;27;20312;-63
2021/12/30 11:08:46;;;;;;;11.13;9.70;;;12.30;99.90;;;;;;5133482;27;20236;-63
2021/12/30 11:11:25;;;;;;;16.23;11.82;;;12.30;99.90;;;;;;5133555;27;20230;-64
2021/12/30 11:14:04;;;;;;;14.95;10.68;;;12.40;99.90;;;;;;5133396;27;20242;-63
2021/12/30 11:16:32;;;;;;;17.73;11.52;;;12.30;99.90;;;;;;5133071;27;20223;-63
2021/12/30 11:18:59;;;;;;;16.52;12.40;;;12.40;99.90;;;;;;5133708;27;20219;-62
2021/12/30 11:21:39;;;;;;;29.92;17.30;;;12.40;99.90;;;;;;5133410;27;20719;-63
2021/12/30 11:24:07;;;;;;;48.92;29.10;;;12.40;99.90;;;;;;5133890;27;20234;-63
2021/12/30 11:26:34;;;;;;;44.33;30.08;;;12.50;99.90;;;;;;5133403;27;20227;-64
2021/12/30 11:29:02;;;;;;;29.15;21.25;;;12.50;99.90;;;;;;5133632;27;20219;-63
2021/12/30 11:31:29;;;;;;;32.75;22.17;;;12.40;99.90;;;;;;5132801;27;20223;-63
2021/12/30 11:33:56;;;;;;;31.58;21.25;;;12.50;99.90;;;;;;5133590;27;20220;-63
2021/12/30 11:36:23;;;;;;;43.55;33.53;;;12.50;99.90;;;;;;5133085;27;20569;-63
2021/12/30 11:38:52;;;;;;;46.22;36.22;;;12.50;99.90;;;;;;5133413;27;20725;-63
2021/12/30 11:41:19;;;;;;;36.65;28.13;;;12.50;99.90;;;;;;5136628;27;20303;-63
2021/12/30 11:43:48;;;;;;;31.70;22.48;;;12.50;99.90;;;;;;5137510;27;20228;-64
2021/12/30 11:46:41;;;;;;;23.00;16.48;;;12.50;99.90;;;;;;5137019;27;20223;-62
2021/12/30 11:49:10;;;;;;;22.73;19.02;;;12.50;99.90;;;;;;5116800;27;20312;-62
2021/12/30 11:51:43;;;;;;;23.63;18.33;;;12.50;99.90;;;;;;5116384;27;20951;-63
2021/12/30 11:54:36;;;;;;;23.10;16.83;;;12.50;99.90;;;;;;5116827;27;20682;-63
2021/12/30 11:57:29;;;;;;;20.40;12.88;;;12.60;99.90;;;;;;5109934;27;20229;-63
2021/12/30 11:59:59;;;;;;;17.33;11.95;;;12.50;99.90;;;;;;5116464;27;20228;-63
2021/12/30 12:02:36;;;;;;;20.67;12.63;;;12.50;99.90;;;;;;5116744;27;20693;-63
2021/12/30 12:05:41;;;;;;;22.27;14.02;;;12.50;99.90;;;;;;5116220;27;20227;-63
2021/12/30 12:08:10;;;;;;;14.80;12.00;;;12.50;99.90;;;;;;5115805;27;20582;-63
2021/12/30 12:10:39;;;;;;;21.40;13.43;;;12.50;99.90;;;;;;5124955;27;20236;-63
2021/12/30 12:13:35;;;;;;;13.93;10.98;;;12.40;99.90;;;;;;5134865;27;20692;-63
2021/12/30 12:16:03;;;;;;;14.27;11.20;;;12.40;99.90;;;;;;5135705;27;20219;-62
2021/12/30 12:18:31;;;;;;;17.35;11.60;;;12.50;99.90;;;;;;5134531;27;20688;-63
2021/12/30 12:21:01;;;;;;;15.30;10.80;;;12.40;99.90;;;;;;5134713;27;20239;-63
2021/12/30 12:23:31;;;;;;;15.05;10.65;;;12.40;99.90;;;;;;5135066;27;20577;-63
2021/12/30 12:26:08;;;;;;;17.13;11.70;;;12.40;99.90;;;;;;5134487;27;20239;-63
2021/12/30 12:28:35;;;;;;;20.63;13.48;;;12.40;99.90;;;;;;5135063;27;20233;-63
2021/12/30 12:31:03;;;;;;;20.17;16.35;;;12.40;99.90;;;;;;5134273;27;20730;-63
2021/12/30 12:33:32;;;;;;;21.08;16.05;;;12.40;99.90;;;;;;5136450;27;20232;-63
2021/12/30 12:36:00;;;;;;;19.75;16.48;;;12.40;99.90;;;;;;5136174;27;20232;-63
2021/12/30 12:38:37;;;;;;;27.25;16.73;;;12.50;99.90;;;;;;5135890;27;20254;-63
2021/12/30 12:41:20;;;;;;;27.83;22.40;;;12.50;99.90;;;;;;5134733;27;20237;-63